createdAt,value
2023-01-30T00:01:04.646Z,-5.49
2023-01-30T00:03:31.690Z,-5.63
2023-01-30T00:05:58.728Z,-5.61
2023-01-30T00:08:25.712Z,-5.29
2023-01-30T00:10:52.774Z,-5.38
2023-01-30T00:13:19.831Z,-5.41
2023-01-30T00:15:48.605Z,-5.37
2023-01-30T00:18:15.631Z,-5.48
2023-01-30T00:20:42.569Z,-5.62
2023-01-30T00:23:09.570Z,-5.65
2023-01-30T00:25:36.717Z,-5.61
2023-01-30T00:28:03.878Z,-5.64
2023-01-30T00:30:31.338Z,-5.60
2023-01-30T00:32:59.682Z,-5.32
2023-01-30T00:35:30.197Z,-5.61
2023-01-30T00:37:58.717Z,-5.29
2023-01-30T00:40:27.781Z,-5.23
2023-01-30T00:43:13.945Z,-5.38
2023-01-30T00:46:04.228Z,-5.65
2023-01-30T00:48:31.863Z,-5.60
2023-01-30T00:50:58.926Z,-5.56
2023-01-30T00:53:25.972Z,-5.68
2023-01-30T00:55:54.546Z,-5.76
2023-01-30T00:58:22.924Z,-5.81
2023-01-30T01:00:51.106Z,-5.83
2023-01-30T01:03:19.135Z,-5.65
2023-01-30T01:05:46.472Z,-5.18
2023-01-30T01:08:14.320Z,-5.23
2023-01-30T01:10:41.427Z,-5.48
2023-01-30T01:13:10.472Z,-5.51
2023-01-30T01:15:38.135Z,-5.50
2023-01-30T01:18:06.026Z,-5.49
2023-01-30T01:20:33.087Z,-5.45
2023-01-30T01:23:00.168Z,-5.33
2023-01-30T01:25:27.319Z,-5.06
2023-01-30T01:27:55.608Z,-4.95
2023-01-30T01:30:22.999Z,-4.84
2023-01-30T01:32:50.063Z,-4.77
2023-01-30T01:35:19.688Z,-4.75
2023-01-30T01:37:47.270Z,-4.79
2023-01-30T01:40:38.190Z,-4.77
2023-01-30T01:43:24.841Z,-4.67
2023-01-30T01:46:22.922Z,-4.75
2023-01-30T01:48:54.796Z,-4.67
2023-01-30T01:51:47.688Z,-4.55
2023-01-30T01:54:27.314Z,-4.47
2023-01-30T01:56:54.540Z,-4.44
2023-01-30T01:59:35.378Z,-4.40
2023-01-30T02:02:09.776Z,-4.33
2023-01-30T02:04:59.702Z,-4.24
2023-01-30T02:07:29.686Z,-4.20
2023-01-30T02:09:57.547Z,-4.20
2023-01-30T02:12:25.766Z,-4.16
2023-01-30T02:14:56.457Z,-4.12
2023-01-30T02:17:24.436Z,-4.02
2023-01-30T02:20:07.298Z,-3.98
2023-01-30T02:23:16.308Z,-3.88
2023-01-30T02:26:04.975Z,-3.79
2023-01-30T02:29:05.236Z,-3.75
2023-01-30T02:32:23.791Z,-3.73
2023-01-30T02:35:03.236Z,-3.70
2023-01-30T02:38:03.300Z,-3.58
2023-01-30T02:41:07.627Z,-3.55
2023-01-30T02:43:57.258Z,-3.28
2023-01-30T02:46:51.600Z,-3.11
2023-01-30T02:49:27.750Z,-3.05
2023-01-30T02:51:56.779Z,-3.02
2023-01-30T02:54:24.320Z,-2.81
2023-01-30T02:56:56.800Z,-2.75
2023-01-30T02:59:39.620Z,-2.69
2023-01-30T03:02:31.197Z,-2.66
2023-01-30T03:05:32.457Z,-2.50
2023-01-30T03:08:14.537Z,-2.59
2023-01-30T03:10:59.048Z,-2.49
2023-01-30T03:13:43.403Z,-2.48
2023-01-30T03:16:18.330Z,-2.42
2023-01-30T03:18:47.240Z,-2.41
2023-01-30T03:21:16.952Z,-2.36
2023-01-30T03:23:47.611Z,-2.34
2023-01-30T03:26:20.936Z,-2.32
2023-01-30T03:28:50.626Z,-2.33
2023-01-30T03:31:18.545Z,-2.31
2023-01-30T03:33:46.286Z,-2.38
2023-01-30T03:36:13.977Z,-2.37
2023-01-30T03:38:41.497Z,-2.23
2023-01-30T03:41:09.119Z,-2.22
2023-01-30T03:43:36.471Z,-2.17
2023-01-30T03:46:05.991Z,-2.11
2023-01-30T03:48:33.027Z,-2.06
2023-01-30T03:51:00.111Z,-2.10
2023-01-30T03:53:27.092Z,-2.12
2023-01-30T03:55:54.472Z,-2.11
2023-01-30T03:58:26.956Z,-2.09
2023-01-30T04:00:57.478Z,-1.98
2023-01-30T04:03:26.069Z,-2.01
2023-01-30T04:05:57.534Z,-1.96
2023-01-30T04:08:24.979Z,-1.81
2023-01-30T04:10:52.992Z,-1.79
2023-01-30T04:13:20.079Z,-1.67
2023-01-30T04:15:47.425Z,-1.70
2023-01-30T04:18:34.641Z,-1.55
2023-01-30T04:21:13.245Z,-1.43
2023-01-30T04:23:40.757Z,-1.33
2023-01-30T04:26:09.095Z,-1.58
2023-01-30T04:28:38.697Z,-1.56
2023-01-30T04:31:06.517Z,-1.58
2023-01-30T04:33:41.372Z,-1.59
2023-01-30T04:36:10.726Z,-1.54
2023-01-30T04:38:38.424Z,-1.39
2023-01-30T04:41:06.332Z,-1.44
2023-01-30T04:43:36.102Z,-1.36
2023-01-30T04:46:11.997Z,-1.32
2023-01-30T04:48:39.979Z,-1.31
2023-01-30T04:51:07.429Z,-1.23
2023-01-30T04:53:37.651Z,-1.18
2023-01-30T04:56:05.501Z,-1.17
2023-01-30T04:58:32.843Z,-1.20
2023-01-30T05:01:21.761Z,-1.30
2023-01-30T05:03:53.100Z,-1.15
2023-01-30T05:06:21.789Z,-1.13
2023-01-30T05:08:55.121Z,-1.02
2023-01-30T05:11:25.106Z,-1.13
2023-01-30T05:13:52.468Z,-0.99
2023-01-30T05:16:20.423Z,-1.07
2023-01-30T05:18:47.575Z,-1.06
2023-01-30T05:21:18.419Z,-1.03
2023-01-30T05:23:45.543Z,-1.00
2023-01-30T05:26:13.928Z,-1.02
2023-01-30T05:28:42.505Z,-1.02
2023-01-30T05:31:14.318Z,-0.88
2023-01-30T05:33:41.598Z,-0.84
2023-01-30T05:36:14.904Z,-0.85
2023-01-30T05:38:44.547Z,-0.89
2023-01-30T05:41:14.016Z,-1.03
2023-01-30T05:43:41.057Z,-0.90
2023-01-30T05:46:12.359Z,-0.85
2023-01-30T05:48:39.577Z,-0.81
2023-01-30T05:51:06.979Z,-0.90
2023-01-30T05:53:35.089Z,-0.89
2023-01-30T05:56:05.550Z,-0.84
2023-01-30T05:58:33.473Z,-0.91
2023-01-30T06:01:05.981Z,-1.13
2023-01-30T06:03:33.383Z,-1.24
2023-01-30T06:06:03.107Z,-1.25
2023-01-30T06:08:30.926Z,-1.25
2023-01-30T06:11:11.492Z,-1.27
2023-01-30T06:13:39.216Z,-1.26
2023-01-30T06:16:08.478Z,-1.24
2023-01-30T06:18:36.147Z,-1.16
2023-01-30T06:21:03.110Z,-1.14
2023-01-30T06:23:30.661Z,-1.17
2023-01-30T06:25:58.163Z,-1.09
2023-01-30T06:28:26.176Z,-0.86
2023-01-30T06:30:54.198Z,-0.92
2023-01-30T06:33:21.463Z,-0.80
2023-01-30T06:35:50.217Z,-0.79
2023-01-30T06:38:18.445Z,-0.81
2023-01-30T06:40:48.519Z,-0.68
2023-01-30T06:43:16.203Z,-0.71
2023-01-30T06:45:43.345Z,-0.65
2023-01-30T06:48:10.481Z,-0.57
2023-01-30T06:50:37.550Z,-0.61
2023-01-30T06:53:07.311Z,-0.56
2023-01-30T06:55:36.359Z,-0.59
2023-01-30T06:58:11.509Z,-0.55
2023-01-30T07:00:40.822Z,-0.55
2023-01-30T07:03:16.493Z,-0.52
2023-01-30T07:05:46.521Z,-0.37
2023-01-30T07:08:15.015Z,-0.35
2023-01-30T07:10:43.108Z,-0.41
2023-01-30T07:13:10.307Z,-0.38
2023-01-30T07:15:38.631Z,-0.38
2023-01-30T07:18:05.708Z,-0.35
2023-01-30T07:20:32.849Z,-0.36
2023-01-30T07:23:00.088Z,-0.30
2023-01-30T07:25:28.847Z,-0.32
2023-01-30T07:28:02.828Z,-0.23
2023-01-30T07:30:32.688Z,-0.18
2023-01-30T07:33:00.729Z,-0.27
2023-01-30T07:35:32.243Z,-0.25
2023-01-30T07:37:59.208Z,-0.24
2023-01-30T07:40:26.865Z,-0.18
2023-01-30T07:43:09.716Z,-0.19
2023-01-30T07:45:36.648Z,-0.31
2023-01-30T07:48:03.864Z,-0.30
2023-01-30T07:50:30.882Z,-0.30
2023-01-30T07:52:57.922Z,-0.25
2023-01-30T07:55:25.088Z,-0.24
2023-01-30T07:57:52.003Z,-0.18
2023-01-30T08:00:19.730Z,-0.21
2023-01-30T08:02:46.963Z,-0.13
2023-01-30T08:05:14.008Z,-0.09
2023-01-30T08:07:41.023Z,-0.09
2023-01-30T08:10:11.689Z,-0.04
2023-01-30T08:12:40.936Z,-0.07
2023-01-30T08:15:11.288Z,-0.07
2023-01-30T08:17:38.283Z,-0.01
2023-01-30T08:20:06.034Z,-0.08
2023-01-30T08:22:33.067Z,-0.16
2023-01-30T08:25:00.579Z,-0.28
2023-01-30T08:27:27.631Z,-0.23
2023-01-30T08:29:54.644Z,-0.22
2023-01-30T08:32:21.984Z,-0.25
2023-01-30T08:34:48.995Z,-0.26
2023-01-30T08:37:15.979Z,-0.20
2023-01-30T08:39:42.902Z,-0.13
2023-01-30T08:42:09.851Z,-0.11
2023-01-30T08:44:36.834Z,0.04
2023-01-30T08:47:03.765Z,0.19
2023-01-30T08:49:30.794Z,0.17
2023-01-30T08:51:57.820Z,-0.03
2023-01-30T08:54:24.851Z,0.11
2023-01-30T08:56:51.850Z,0.23
2023-01-30T08:59:18.840Z,0.09
2023-01-30T09:01:45.822Z,0.17
2023-01-30T09:04:12.836Z,0.13
2023-01-30T09:06:39.812Z,0.19
2023-01-30T09:09:06.913Z,0.23
2023-01-30T09:11:33.903Z,0.19
2023-01-30T09:14:00.828Z,0.28
2023-01-30T09:16:27.918Z,0.35
2023-01-30T09:18:54.908Z,0.44
2023-01-30T09:21:22.127Z,0.62
2023-01-30T09:23:49.005Z,0.69
2023-01-30T09:26:16.458Z,0.64
2023-01-30T09:28:43.451Z,0.69
2023-01-30T09:31:10.545Z,0.88
2023-01-30T09:33:37.559Z,0.80
2023-01-30T09:36:05.227Z,0.81
2023-01-30T09:38:32.205Z,0.83
2023-01-30T09:40:59.063Z,0.78
2023-01-30T09:43:59.571Z,0.81
2023-01-30T09:46:46.491Z,0.84
2023-01-30T09:49:35.045Z,0.80
2023-01-30T09:52:38.455Z,0.82
2023-01-30T09:55:20.811Z,0.77
2023-01-30T09:57:49.560Z,0.75
2023-01-30T10:00:43.584Z,0.75
2023-01-30T10:03:18.591Z,0.79
2023-01-30T10:05:56.311Z,0.81
2023-01-30T10:09:03.315Z,0.92
2023-01-30T10:11:48.261Z,0.95
2023-01-30T10:14:21.340Z,0.99
2023-01-30T10:17:21.215Z,1.10
2023-01-30T10:20:06.771Z,1.10
2023-01-30T10:23:02.263Z,1.25
2023-01-30T10:25:58.885Z,1.36
2023-01-30T10:28:35.063Z,1.40
2023-01-30T10:31:12.305Z,1.47
2023-01-30T10:33:58.411Z,1.46
2023-01-30T10:36:40.118Z,1.56
2023-01-30T10:39:26.480Z,1.55
2023-01-30T10:42:09.280Z,1.62
2023-01-30T10:44:38.395Z,1.55
2023-01-30T10:47:46.513Z,1.70
2023-01-30T10:50:25.798Z,1.80
2023-01-30T10:53:13.226Z,1.94
2023-01-30T10:55:51.798Z,1.98
2023-01-30T10:58:37.740Z,2.04
2023-01-30T11:01:07.241Z,2.01
2023-01-30T11:03:40.028Z,1.84
2023-01-30T11:06:13.594Z,1.81
2023-01-30T11:08:41.034Z,1.75
2023-01-30T11:11:27.194Z,1.85
2023-01-30T11:14:05.787Z,1.83
2023-01-30T11:16:41.005Z,1.78
2023-01-30T11:19:23.477Z,1.79
2023-01-30T11:21:54.580Z,1.73
2023-01-30T11:24:53.604Z,1.63
2023-01-30T11:27:32.496Z,1.43
2023-01-30T11:30:17.834Z,1.16
2023-01-30T11:32:49.949Z,1.10
2023-01-30T11:35:28.757Z,1.16
2023-01-30T11:38:13.350Z,1.06
2023-01-30T11:40:41.509Z,1.02
2023-01-30T11:43:15.098Z,0.88
2023-01-30T11:45:47.267Z,0.61
2023-01-30T11:48:33.973Z,0.65
2023-01-30T11:51:09.541Z,0.61
2023-01-30T11:53:49.693Z,0.51
2023-01-30T11:56:36.481Z,0.46
2023-01-30T11:59:10.737Z,0.31
2023-01-30T12:01:38.053Z,0.26
2023-01-30T12:04:12.606Z,0.32
2023-01-30T12:06:42.755Z,0.28
2023-01-30T12:09:35.212Z,0.42
2023-01-30T12:12:02.346Z,0.52
2023-01-30T12:14:39.579Z,0.54
2023-01-30T12:17:35.525Z,0.66
2023-01-30T12:20:20.236Z,0.95
2023-01-30T12:23:07.614Z,1.39
2023-01-30T12:25:42.774Z,1.59
2023-01-30T12:28:25.517Z,1.75
2023-01-30T12:30:58.882Z,1.69
2023-01-30T12:33:30.531Z,1.75
2023-01-30T12:36:09.720Z,1.78
2023-01-30T12:39:10.825Z,1.81
2023-01-30T12:42:11.796Z,1.90
2023-01-30T12:45:17.070Z,2.00
2023-01-30T12:47:50.053Z,2.07
2023-01-30T12:50:33.261Z,2.20
2023-01-30T12:53:38.189Z,2.28
2023-01-30T12:56:33.697Z,2.34
2023-01-30T12:59:13.214Z,2.39
2023-01-30T13:02:19.039Z,2.42
2023-01-30T13:05:02.138Z,2.46
2023-01-30T13:07:52.958Z,2.50
2023-01-30T13:10:36.695Z,2.50
2023-01-30T13:13:24.852Z,2.60
2023-01-30T13:16:24.004Z,2.66
2023-01-30T13:19:12.201Z,2.69
2023-01-30T13:21:45.877Z,2.72
2023-01-30T13:24:31.983Z,2.78
2023-01-30T13:27:03.680Z,2.84
2023-01-30T13:29:41.015Z,2.83
2023-01-30T13:33:16.425Z,2.82
2023-01-30T13:35:57.879Z,2.82
2023-01-30T13:38:28.701Z,2.87
2023-01-30T13:40:58.176Z,2.90
2023-01-30T13:43:38.665Z,2.91
2023-01-30T13:46:17.044Z,2.83
2023-01-30T13:48:55.704Z,2.88
2023-01-30T13:51:49.605Z,2.91
2023-01-30T13:54:28.583Z,2.82
2023-01-30T13:57:33.412Z,2.79
2023-01-30T14:00:34.162Z,2.81
2023-01-30T14:03:03.869Z,2.83
2023-01-30T14:05:54.100Z,2.79
2023-01-30T14:08:46.168Z,2.76
2023-01-30T14:11:37.595Z,2.76
2023-01-30T14:14:24.036Z,2.74
2023-01-30T14:17:09.687Z,2.74
2023-01-30T14:20:01.801Z,2.69
2023-01-30T14:23:00.807Z,2.66
2023-01-30T14:25:30.860Z,2.65
2023-01-30T14:28:00.534Z,2.64
2023-01-30T14:31:01.332Z,2.62
2023-01-30T14:33:32.838Z,2.72
2023-01-30T14:36:03.240Z,2.79
2023-01-30T14:38:40.523Z,2.84
2023-01-30T14:41:07.810Z,2.84
2023-01-30T14:43:44.338Z,2.90
2023-01-30T14:46:20.978Z,2.92
2023-01-30T14:48:50.032Z,2.94
2023-01-30T14:51:39.356Z,2.90
2023-01-30T14:54:14.064Z,2.94
2023-01-30T14:56:58.636Z,2.98
2023-01-30T14:59:35.630Z,2.97
2023-01-30T15:02:05.962Z,2.97
2023-01-30T15:04:43.028Z,2.96
2023-01-30T15:07:32.406Z,2.84
2023-01-30T15:10:12.427Z,2.83
2023-01-30T15:13:19.524Z,2.80
2023-01-30T15:16:03.969Z,2.79
2023-01-30T15:19:03.755Z,2.71
2023-01-30T15:21:42.318Z,2.73
2023-01-30T15:24:27.589Z,2.69
2023-01-30T15:27:13.086Z,2.72
2023-01-30T15:30:04.790Z,2.72
2023-01-30T15:32:33.438Z,2.72
2023-01-30T15:35:24.563Z,2.67
2023-01-30T15:37:57.302Z,2.62
2023-01-30T15:40:30.030Z,2.53
2023-01-30T15:43:13.744Z,2.56
2023-01-30T15:45:56.306Z,2.59
2023-01-30T15:48:50.864Z,2.59
2023-01-30T15:51:27.222Z,2.59
2023-01-30T15:53:56.938Z,2.57
2023-01-30T15:56:30.555Z,2.56
2023-01-30T15:59:00.758Z,2.61
2023-01-30T16:01:27.957Z,2.54
2023-01-30T16:03:57.787Z,2.56
2023-01-30T16:06:37.601Z,2.56
2023-01-30T16:09:26.664Z,2.60
2023-01-30T16:11:54.162Z,2.59
2023-01-30T16:14:22.781Z,2.59
2023-01-30T16:16:56.630Z,2.59
2023-01-30T16:19:33.699Z,2.58
2023-01-30T16:22:03.717Z,2.57
2023-01-30T16:24:33.196Z,2.58
2023-01-30T16:27:05.687Z,2.60
2023-01-30T16:29:53.207Z,2.61
2023-01-30T16:32:31.666Z,2.61
2023-01-30T16:35:30.954Z,2.66
2023-01-30T16:38:00.296Z,2.60
2023-01-30T16:40:31.993Z,2.62
2023-01-30T16:43:04.407Z,2.64
2023-01-30T16:45:34.014Z,2.64
2023-01-30T16:48:36.975Z,2.64
2023-01-30T16:51:21.800Z,2.67
2023-01-30T16:53:56.608Z,2.63
2023-01-30T16:56:24.128Z,2.64
2023-01-30T16:58:54.989Z,2.64
2023-01-30T17:01:24.195Z,2.61
2023-01-30T17:04:01.200Z,2.60
2023-01-30T17:06:39.822Z,2.64
2023-01-30T17:09:38.595Z,2.69
2023-01-30T17:12:27.255Z,2.63
2023-01-30T17:15:12.686Z,2.56
2023-01-30T17:17:41.008Z,2.53
2023-01-30T17:20:09.628Z,2.58
2023-01-30T17:22:41.971Z,2.62
2023-01-30T17:25:27.467Z,2.61
2023-01-30T17:27:55.472Z,2.59
2023-01-30T17:30:22.592Z,2.60
2023-01-30T17:32:52.446Z,2.63
2023-01-30T17:35:20.150Z,2.61
2023-01-30T17:37:59.868Z,2.59
2023-01-30T17:40:38.182Z,2.54
2023-01-30T17:43:05.983Z,2.58
2023-01-30T17:45:33.571Z,2.55
2023-01-30T17:48:00.643Z,2.56
2023-01-30T17:50:28.563Z,2.50
2023-01-30T17:52:56.063Z,2.53
2023-01-30T17:55:23.521Z,2.54
2023-01-30T17:57:50.989Z,2.62
2023-01-30T18:00:20.697Z,2.61
2023-01-30T18:02:48.524Z,2.53
2023-01-30T18:05:15.951Z,2.51
2023-01-30T18:07:43.896Z,2.54
2023-01-30T18:10:18.689Z,2.53
2023-01-30T18:12:46.930Z,2.55
2023-01-30T18:15:15.797Z,2.60
2023-01-30T18:17:47.464Z,2.56
2023-01-30T18:20:17.559Z,2.57
2023-01-30T18:22:45.737Z,2.56
2023-01-30T18:25:13.754Z,2.58
2023-01-30T18:27:44.187Z,2.61
2023-01-30T18:30:17.421Z,2.61
2023-01-30T18:32:52.925Z,2.53
2023-01-30T18:35:22.529Z,2.53
2023-01-30T18:37:50.237Z,2.60
2023-01-30T18:40:18.656Z,2.63
2023-01-30T18:42:46.768Z,2.61
2023-01-30T18:45:14.230Z,2.63
2023-01-30T18:47:42.113Z,2.63
2023-01-30T18:50:10.052Z,2.68
2023-01-30T18:52:37.432Z,2.68
2023-01-30T18:55:05.134Z,2.63
2023-01-30T18:57:32.513Z,2.70
2023-01-30T18:59:59.891Z,2.67
2023-01-30T19:02:27.322Z,2.69
2023-01-30T19:04:54.689Z,2.65
2023-01-30T19:07:22.293Z,2.74
2023-01-30T19:09:49.769Z,2.71
2023-01-30T19:12:35.675Z,2.67
2023-01-30T19:15:03.438Z,2.71
2023-01-30T19:17:31.034Z,2.74
2023-01-30T19:20:01.132Z,2.69
2023-01-30T19:22:28.618Z,2.69
2023-01-30T19:24:56.090Z,2.74
2023-01-30T19:27:23.561Z,2.75
2023-01-30T19:29:50.917Z,2.76
2023-01-30T19:32:18.194Z,2.75
2023-01-30T19:34:45.590Z,2.75
2023-01-30T19:37:12.946Z,2.74
2023-01-30T19:39:40.288Z,2.71
2023-01-30T19:42:07.610Z,2.74
2023-01-30T19:44:34.929Z,2.81
2023-01-30T19:47:02.400Z,2.77
2023-01-30T19:49:29.847Z,2.77
2023-01-30T19:52:01.953Z,2.75
2023-01-30T19:54:29.494Z,2.79
2023-01-30T19:56:57.106Z,2.75
2023-01-30T19:59:27.447Z,2.73
2023-01-30T20:01:54.819Z,2.73
2023-01-30T20:04:22.457Z,2.71
2023-01-30T20:06:50.103Z,2.77
2023-01-30T20:09:17.706Z,2.76
2023-01-30T20:11:45.400Z,2.80
2023-01-30T20:14:13.267Z,2.77
2023-01-30T20:16:40.930Z,2.79
2023-01-30T20:19:14.544Z,2.75
2023-01-30T20:21:42.721Z,2.71
2023-01-30T20:24:14.642Z,2.73
2023-01-30T20:26:42.794Z,2.65
2023-01-30T20:29:11.099Z,2.68
2023-01-30T20:31:39.556Z,2.68
2023-01-30T20:34:10.688Z,2.71
2023-01-30T20:36:38.086Z,2.69
2023-01-30T20:39:07.613Z,2.70
2023-01-30T20:41:37.540Z,2.65
2023-01-30T20:44:06.848Z,2.66
2023-01-30T20:46:41.177Z,2.65
2023-01-30T20:49:16.311Z,2.68
2023-01-30T20:51:44.232Z,2.70
2023-01-30T20:54:13.561Z,2.67
2023-01-30T20:56:49.601Z,2.67
2023-01-30T20:59:19.565Z,2.62
2023-01-30T21:01:47.056Z,2.68
2023-01-30T21:04:16.170Z,2.68
2023-01-30T21:06:46.102Z,2.65
2023-01-30T21:09:22.137Z,2.69
2023-01-30T21:11:51.072Z,2.69
2023-01-30T21:14:18.749Z,2.65
2023-01-30T21:16:46.559Z,2.64
2023-01-30T21:19:16.561Z,2.54
2023-01-30T21:21:50.445Z,2.60
2023-01-30T21:24:20.956Z,2.59
2023-01-30T21:26:48.831Z,2.60
2023-01-30T21:29:18.972Z,2.55
2023-01-30T21:31:46.678Z,2.56
2023-01-30T21:34:14.478Z,2.59
2023-01-30T21:36:41.932Z,2.65
2023-01-30T21:39:32.283Z,2.64
2023-01-30T21:42:19.309Z,2.72
2023-01-30T21:44:47.415Z,2.72
2023-01-30T21:47:14.732Z,2.79
2023-01-30T21:49:43.976Z,2.79
2023-01-30T21:52:12.232Z,2.77
2023-01-30T21:54:40.042Z,2.87
2023-01-30T21:57:07.448Z,2.88
2023-01-30T21:59:35.098Z,2.77
2023-01-30T22:02:02.508Z,2.87
2023-01-30T22:04:29.804Z,2.82
2023-01-30T22:06:57.136Z,2.75
2023-01-30T22:09:24.438Z,2.74
2023-01-30T22:11:51.736Z,2.70
2023-01-30T22:14:19.011Z,2.67
2023-01-30T22:16:46.355Z,2.66
2023-01-30T22:19:14.318Z,2.67
2023-01-30T22:21:41.742Z,2.70
2023-01-30T22:24:11.657Z,2.69
2023-01-30T22:26:39.613Z,2.62
2023-01-30T22:29:07.384Z,2.67
2023-01-30T22:31:36.729Z,2.59
2023-01-30T22:34:04.753Z,2.51
2023-01-30T22:36:34.805Z,2.53
2023-01-30T22:39:03.235Z,2.58
2023-01-30T22:41:37.228Z,2.53
2023-01-30T22:44:07.651Z,2.49
2023-01-30T22:46:37.484Z,2.51
2023-01-30T22:49:06.867Z,2.53
2023-01-30T22:51:39.805Z,2.48
2023-01-30T22:54:10.427Z,2.42
2023-01-30T22:56:40.763Z,2.41
2023-01-30T22:59:08.676Z,2.39
2023-01-30T23:01:41.675Z,2.38
2023-01-30T23:04:20.418Z,2.43
2023-01-30T23:06:48.649Z,2.44
2023-01-30T23:09:19.221Z,2.35
2023-01-30T23:12:10.042Z,2.41
2023-01-30T23:14:38.165Z,2.40
2023-01-30T23:17:26.755Z,2.34
2023-01-30T23:19:54.920Z,2.31
2023-01-30T23:22:22.411Z,2.30
2023-01-30T23:24:51.163Z,2.32
2023-01-30T23:27:19.433Z,2.25
2023-01-30T23:29:46.968Z,2.32
2023-01-30T23:32:14.980Z,2.38
2023-01-30T23:34:42.497Z,2.38
2023-01-30T23:37:09.918Z,2.38
2023-01-30T23:39:37.666Z,2.37
2023-01-30T23:42:05.028Z,2.28
2023-01-30T23:44:32.428Z,2.40
2023-01-30T23:46:59.757Z,2.34
2023-01-30T23:49:27.142Z,2.44
2023-01-30T23:51:54.505Z,2.41
2023-01-30T23:54:21.879Z,2.35
2023-01-30T23:56:49.189Z,2.21
2023-01-30T23:59:16.848Z,2.24
